sensor_id;sensor_type;location;lat;lon;timestamp;P1;durP1;ratioP1;P2;durP2;ratioP2
52574;SDS011;38468;48.114;-1.684;2022-10-20T00:01:38;22.63;;;7.63;;
52574;SDS011;38468;48.114;-1.684;2022-10-20T00:03:38;27.45;;;8.02;;
52574;SDS011;38468;48.114;-1.684;2022-10-20T00:05:39;26.38;;;5.38;;
52574;SDS011;38468;48.114;-1.684;2022-10-20T00:07:40;18.08;;;5.75;;
52574;SDS011;38468;48.114;-1.684;2022-10-20T00:09:40;19.05;;;7.47;;
52574;SDS011;38468;48.114;-1.684;2022-10-20T00:11:41;23.60;;;9.43;;
52574;SDS011;38468;48.114;-1.684;2022-10-20T00:13:45;23.38;;;6.55;;
52574;SDS011;38468;48.114;-1.684;2022-10-20T00:15:48;14.98;;;7.22;;
52574;SDS011;38468;48.114;-1.684;2022-10-20T00:17:52;15.32;;;5.25;;
52574;SDS011;38468;48.114;-1.684;2022-10-20T00:19:53;14.90;;;7.03;;
52574;SDS011;38468;48.114;-1.684;2022-10-20T00:21:53;30.67;;;7.85;;
52574;SDS011;38468;48.114;-1.684;2022-10-20T00:23:54;28.85;;;7.38;;
52574;SDS011;38468;48.114;-1.684;2022-10-20T00:26:01;34.10;;;8.65;;
52574;SDS011;38468;48.114;-1.684;2022-10-20T00:28:07;20.15;;;7.15;;
52574;SDS011;38468;48.114;-1.684;2022-10-20T00:30:08;15.55;;;6.82;;
52574;SDS011;38468;48.114;-1.684;2022-10-20T00:32:09;21.50;;;6.85;;
52574;SDS011;38468;48.114;-1.684;2022-10-20T00:34:10;19.48;;;7.90;;
52574;SDS011;38468;48.114;-1.684;2022-10-20T00:36:12;26.83;;;7.97;;
52574;SDS011;38468;48.114;-1.684;2022-10-20T00:38:14;19.50;;;7.30;;
52574;SDS011;38468;48.114;-1.684;2022-10-20T00:40:15;20.23;;;7.53;;
52574;SDS011;38468;48.114;-1.684;2022-10-20T00:42:17;17.58;;;6.18;;
52574;SDS011;38468;48.114;-1.684;2022-10-20T00:46:43;20.15;;;8.65;;
52574;SDS011;38468;48.114;-1.684;2022-10-20T00:48:45;22.70;;;7.78;;
52574;SDS011;38468;48.114;-1.684;2022-10-20T00:50:51;25.35;;;7.88;;
52574;SDS011;38468;48.114;-1.684;2022-10-20T00:52:55;16.02;;;6.13;;
52574;SDS011;38468;48.114;-1.684;2022-10-20T00:54:57;22.80;;;7.57;;
52574;SDS011;38468;48.114;-1.684;2022-10-20T00:56:59;22.52;;;8.43;;
52574;SDS011;38468;48.114;-1.684;2022-10-20T00:59:00;28.85;;;7.82;;
52574;SDS011;38468;48.114;-1.684;2022-10-20T01:03:03;17.92;;;6.60;;
52574;SDS011;38468;48.114;-1.684;2022-10-20T01:05:06;18.27;;;7.63;;
52574;SDS011;38468;48.114;-1.684;2022-10-20T01:07:07;27.07;;;6.57;;
52574;SDS011;38468;48.114;-1.684;2022-10-20T01:09:08;18.55;;;6.43;;
52574;SDS011;38468;48.114;-1.684;2022-10-20T01:13:31;17.55;;;6.50;;
52574;SDS011;38468;48.114;-1.684;2022-10-20T01:16:17;19.80;;;6.35;;
52574;SDS011;38468;48.114;-1.684;2022-10-20T01:20:28;13.35;;;6.75;;
52574;SDS011;38468;48.114;-1.684;2022-10-20T01:34:11;14.57;;;5.75;;
52574;SDS011;38468;48.114;-1.684;2022-10-20T01:36:21;15.73;;;5.47;;
52574;SDS011;38468;48.114;-1.684;2022-10-20T01:38:38;12.13;;;5.22;;
52574;SDS011;38468;48.114;-1.684;2022-10-20T01:40:45;19.83;;;6.93;;
52574;SDS011;38468;48.114;-1.684;2022-10-20T01:42:49;15.15;;;5.10;;
52574;SDS011;38468;48.114;-1.684;2022-10-20T01:44:53;17.42;;;6.47;;
52574;SDS011;38468;48.114;-1.684;2022-10-20T01:46:56;14.50;;;5.78;;
52574;SDS011;38468;48.114;-1.684;2022-10-20T01:48:59;25.63;;;6.28;;
52574;SDS011;38468;48.114;-1.684;2022-10-20T01:51:02;14.57;;;5.13;;
52574;SDS011;38468;48.114;-1.684;2022-10-20T01:53:03;13.93;;;6.13;;
52574;SDS011;38468;48.114;-1.684;2022-10-20T01:55:14;17.38;;;6.10;;
52574;SDS011;38468;48.114;-1.684;2022-10-20T01:57:31;8.73;;;5.00;;
52574;SDS011;38468;48.114;-1.684;2022-10-20T02:04:18;10.35;;;4.80;;
52574;SDS011;38468;48.114;-1.684;2022-10-20T02:09:10;21.25;;;5.60;;
52574;SDS011;38468;48.114;-1.684;2022-10-20T02:11:29;14.45;;;5.82;;
52574;SDS011;38468;48.114;-1.684;2022-10-20T02:13:41;20.90;;;5.72;;
52574;SDS011;38468;48.114;-1.684;2022-10-20T02:15:47;19.15;;;6.75;;
52574;SDS011;38468;48.114;-1.684;2022-10-20T02:17:54;27.75;;;6.32;;
52574;SDS011;38468;48.114;-1.684;2022-10-20T02:19:59;19.90;;;6.72;;
52574;SDS011;38468;48.114;-1.684;2022-10-20T02:22:00;21.75;;;6.40;;
52574;SDS011;38468;48.114;-1.684;2022-10-20T02:24:03;23.33;;;5.82;;
52574;SDS011;38468;48.114;-1.684;2022-10-20T02:26:06;24.80;;;6.88;;
52574;SDS011;38468;48.114;-1.684;2022-10-20T02:28:12;18.73;;;8.68;;
52574;SDS011;38468;48.114;-1.684;2022-10-20T02:30:15;26.38;;;6.18;;
52574;SDS011;38468;48.114;-1.684;2022-10-20T02:32:17;19.15;;;6.60;;
52574;SDS011;38468;48.114;-1.684;2022-10-20T02:34:18;22.73;;;7.70;;
52574;SDS011;38468;48.114;-1.684;2022-10-20T02:36:19;19.15;;;5.80;;
52574;SDS011;38468;48.114;-1.684;2022-10-20T02:38:23;17.55;;;7.38;;
52574;SDS011;38468;48.114;-1.684;2022-10-20T02:40:25;12.48;;;6.53;;
52574;SDS011;38468;48.114;-1.684;2022-10-20T02:42:26;16.43;;;5.80;;
52574;SDS011;38468;48.114;-1.684;2022-10-20T02:44:26;17.33;;;6.10;;
52574;SDS011;38468;48.114;-1.684;2022-10-20T02:46:30;14.77;;;5.28;;
52574;SDS011;38468;48.114;-1.684;2022-10-20T02:48:30;18.35;;;5.70;;
52574;SDS011;38468;48.114;-1.684;2022-10-20T02:50:31;18.88;;;6.93;;
52574;SDS011;38468;48.114;-1.684;2022-10-20T02:52:32;13.85;;;5.68;;
52574;SDS011;38468;48.114;-1.684;2022-10-20T02:54:33;25.07;;;6.67;;
52574;SDS011;38468;48.114;-1.684;2022-10-20T02:56:34;19.77;;;5.60;;
52574;SDS011;38468;48.114;-1.684;2022-10-20T02:58:34;14.30;;;4.88;;
52574;SDS011;38468;48.114;-1.684;2022-10-20T03:00:35;15.75;;;5.00;;
52574;SDS011;38468;48.114;-1.684;2022-10-20T03:02:36;16.58;;;5.70;;
52574;SDS011;38468;48.114;-1.684;2022-10-20T03:04:37;20.02;;;5.93;;
52574;SDS011;38468;48.114;-1.684;2022-10-20T03:06:38;16.77;;;5.20;;
52574;SDS011;38468;48.114;-1.684;2022-10-20T03:08:40;10.82;;;4.82;;
52574;SDS011;38468;48.114;-1.684;2022-10-20T03:10:41;24.00;;;6.83;;
52574;SDS011;38468;48.114;-1.684;2022-10-20T03:12:42;16.60;;;5.23;;
52574;SDS011;38468;48.114;-1.684;2022-10-20T03:14:43;21.80;;;6.45;;
52574;SDS011;38468;48.114;-1.684;2022-10-20T03:16:44;21.17;;;6.00;;
52574;SDS011;38468;48.114;-1.684;2022-10-20T03:18:45;15.93;;;4.85;;
52574;SDS011;38468;48.114;-1.684;2022-10-20T03:20:45;12.85;;;5.78;;
52574;SDS011;38468;48.114;-1.684;2022-10-20T03:22:49;25.58;;;6.40;;
52574;SDS011;38468;48.114;-1.684;2022-10-20T03:24:49;16.85;;;5.57;;
52574;SDS011;38468;48.114;-1.684;2022-10-20T03:26:50;9.23;;;4.80;;
52574;SDS011;38468;48.114;-1.684;2022-10-20T03:28:50;14.60;;;5.00;;
52574;SDS011;38468;48.114;-1.684;2022-10-20T03:30:51;18.75;;;6.40;;
52574;SDS011;38468;48.114;-1.684;2022-10-20T03:32:52;16.25;;;6.68;;
52574;SDS011;38468;48.114;-1.684;2022-10-20T03:34:52;14.60;;;6.82;;
52574;SDS011;38468;48.114;-1.684;2022-10-20T03:36:53;18.08;;;6.03;;
52574;SDS011;38468;48.114;-1.684;2022-10-20T03:38:54;21.55;;;6.82;;
52574;SDS011;38468;48.114;-1.684;2022-10-20T03:40:54;18.90;;;5.85;;
52574;SDS011;38468;48.114;-1.684;2022-10-20T03:42:55;21.65;;;7.28;;
52574;SDS011;38468;48.114;-1.684;2022-10-20T03:44:56;13.85;;;4.85;;
52574;SDS011;38468;48.114;-1.684;2022-10-20T03:46:56;22.80;;;6.45;;
52574;SDS011;38468;48.114;-1.684;2022-10-20T03:48:59;23.17;;;7.18;;
52574;SDS011;38468;48.114;-1.684;2022-10-20T03:50:59;18.45;;;6.90;;
52574;SDS011;38468;48.114;-1.684;2022-10-20T03:53:01;18.30;;;6.32;;
52574;SDS011;38468;48.114;-1.684;2022-10-20T03:55:01;13.27;;;5.72;;
52574;SDS011;38468;48.114;-1.684;2022-10-20T03:57:02;23.45;;;8.32;;
52574;SDS011;38468;48.114;-1.684;2022-10-20T03:59:03;16.15;;;6.88;;
52574;SDS011;38468;48.114;-1.684;2022-10-20T04:01:04;11.95;;;5.30;;
52574;SDS011;38468;48.114;-1.684;2022-10-20T04:03:05;15.43;;;7.00;;
52574;SDS011;38468;48.114;-1.684;2022-10-20T04:05:07;22.98;;;5.57;;
52574;SDS011;38468;48.114;-1.684;2022-10-20T04:07:08;17.52;;;6.40;;
52574;SDS011;38468;48.114;-1.684;2022-10-20T04:09:08;14.93;;;5.25;;
52574;SDS011;38468;48.114;-1.684;2022-10-20T04:11:09;14.02;;;6.70;;
52574;SDS011;38468;48.114;-1.684;2022-10-20T04:13:10;16.67;;;6.68;;
52574;SDS011;38468;48.114;-1.684;2022-10-20T04:15:10;16.70;;;5.22;;
52574;SDS011;38468;48.114;-1.684;2022-10-20T04:17:11;9.75;;;4.90;;
52574;SDS011;38468;48.114;-1.684;2022-10-20T04:19:12;9.45;;;6.05;;
52574;SDS011;38468;48.114;-1.684;2022-10-20T04:21:12;15.02;;;4.57;;
52574;SDS011;38468;48.114;-1.684;2022-10-20T04:23:13;15.90;;;4.90;;
52574;SDS011;38468;48.114;-1.684;2022-10-20T04:25:14;12.63;;;5.65;;
52574;SDS011;38468;48.114;-1.684;2022-10-20T04:27:15;11.05;;;4.63;;
52574;SDS011;38468;48.114;-1.684;2022-10-20T04:29:16;11.13;;;4.10;;
52574;SDS011;38468;48.114;-1.684;2022-10-20T04:31:16;13.13;;;4.68;;
52574;SDS011;38468;48.114;-1.684;2022-10-20T04:33:17;17.85;;;4.65;;
52574;SDS011;38468;48.114;-1.684;2022-10-20T04:35:18;11.75;;;3.65;;
52574;SDS011;38468;48.114;-1.684;2022-10-20T04:37:18;10.90;;;3.63;;
52574;SDS011;38468;48.114;-1.684;2022-10-20T04:39:19;8.95;;;3.92;;
52574;SDS011;38468;48.114;-1.684;2022-10-20T04:41:20;14.30;;;3.35;;
52574;SDS011;38468;48.114;-1.684;2022-10-20T04:43:20;11.00;;;3.30;;
52574;SDS011;38468;48.114;-1.684;2022-10-20T04:45:21;8.93;;;3.28;;
52574;SDS011;38468;48.114;-1.684;2022-10-20T04:47:22;10.13;;;2.40;;
52574;SDS011;38468;48.114;-1.684;2022-10-20T04:49:22;7.55;;;3.13;;
52574;SDS011;38468;48.114;-1.684;2022-10-20T04:51:23;10.88;;;3.28;;
52574;SDS011;38468;48.114;-1.684;2022-10-20T04:53:24;10.18;;;3.10;;
52574;SDS011;38468;48.114;-1.684;2022-10-20T04:55:25;5.13;;;2.40;;
52574;SDS011;38468;48.114;-1.684;2022-10-20T04:57:25;4.32;;;1.75;;
52574;SDS011;38468;48.114;-1.684;2022-10-20T04:59:26;4.32;;;1.55;;
52574;SDS011;38468;48.114;-1.684;2022-10-20T05:01:28;3.55;;;1.83;;
52574;SDS011;38468;48.114;-1.684;2022-10-20T05:03:29;6.40;;;2.47;;
52574;SDS011;38468;48.114;-1.684;2022-10-20T05:05:30;11.10;;;1.85;;
52574;SDS011;38468;48.114;-1.684;2022-10-20T05:07:31;8.15;;;1.05;;
52574;SDS011;38468;48.114;-1.684;2022-10-20T05:09:32;3.75;;;1.17;;
52574;SDS011;38468;48.114;-1.684;2022-10-20T05:11:34;0.25;;;0.22;;
52574;SDS011;38468;48.114;-1.684;2022-10-20T05:13:35;3.42;;;0.65;;
52574;SDS011;38468;48.114;-1.684;2022-10-20T05:15:36;4.85;;;0.63;;
52574;SDS011;38468;48.114;-1.684;2022-10-20T05:17:37;5.15;;;1.23;;
52574;SDS011;38468;48.114;-1.684;2022-10-20T05:19:37;7.18;;;3.45;;
52574;SDS011;38468;48.114;-1.684;2022-10-20T05:21:38;2.97;;;1.02;;
52574;SDS011;38468;48.114;-1.684;2022-10-20T05:23:39;1.45;;;0.40;;
52574;SDS011;38468;48.114;-1.684;2022-10-20T05:25:40;1.15;;;0.28;;
52574;SDS011;38468;48.114;-1.684;2022-10-20T05:27:40;2.72;;;0.40;;
52574;SDS011;38468;48.114;-1.684;2022-10-20T05:29:41;2.38;;;0.43;;
52574;SDS011;38468;48.114;-1.684;2022-10-20T05:31:42;1.10;;;0.40;;
52574;SDS011;38468;48.114;-1.684;2022-10-20T05:33:44;1.30;;;0.40;;
52574;SDS011;38468;48.114;-1.684;2022-10-20T05:35:46;3.17;;;0.80;;
52574;SDS011;38468;48.114;-1.684;2022-10-20T05:37:46;5.47;;;0.60;;
52574;SDS011;38468;48.114;-1.684;2022-10-20T05:39:47;3.70;;;0.68;;
52574;SDS011;38468;48.114;-1.684;2022-10-20T05:41:48;6.05;;;0.82;;
52574;SDS011;38468;48.114;-1.684;2022-10-20T05:43:49;0.65;;;0.57;;
52574;SDS011;38468;48.114;-1.684;2022-10-20T05:45:54;2.85;;;1.90;;
52574;SDS011;38468;48.114;-1.684;2022-10-20T05:47:55;6.75;;;3.85;;
52574;SDS011;38468;48.114;-1.684;2022-10-20T05:49:55;4.25;;;1.50;;
52574;SDS011;38468;48.114;-1.684;2022-10-20T05:51:56;3.60;;;0.80;;
52574;SDS011;38468;48.114;-1.684;2022-10-20T05:53:57;2.83;;;0.55;;
52574;SDS011;38468;48.114;-1.684;2022-10-20T05:56:02;0.97;;;0.43;;
52574;SDS011;38468;48.114;-1.684;2022-10-20T05:58:04;0.93;;;0.45;;
52574;SDS011;38468;48.114;-1.684;2022-10-20T06:00:05;1.00;;;0.70;;
52574;SDS011;38468;48.114;-1.684;2022-10-20T06:02:07;1.00;;;0.68;;
52574;SDS011;38468;48.114;-1.684;2022-10-20T06:04:09;8.63;;;3.92;;
52574;SDS011;38468;48.114;-1.684;2022-10-20T06:06:10;6.22;;;2.38;;
52574;SDS011;38468;48.114;-1.684;2022-10-20T06:08:10;6.07;;;1.42;;
52574;SDS011;38468;48.114;-1.684;2022-10-20T06:10:11;1.38;;;0.57;;
52574;SDS011;38468;48.114;-1.684;2022-10-20T06:12:12;0.20;;;0.20;;
52574;SDS011;38468;48.114;-1.684;2022-10-20T06:14:12;0.47;;;0.38;;
52574;SDS011;38468;48.114;-1.684;2022-10-20T06:16:14;0.25;;;0.25;;
52574;SDS011;38468;48.114;-1.684;2022-10-20T06:18:19;0.85;;;0.70;;
52574;SDS011;38468;48.114;-1.684;2022-10-20T06:20:20;0.43;;;0.43;;
52574;SDS011;38468;48.114;-1.684;2022-10-20T06:22:20;0.70;;;0.70;;
52574;SDS011;38468;48.114;-1.684;2022-10-20T06:24:21;3.03;;;0.73;;
52574;SDS011;38468;48.114;-1.684;2022-10-20T06:26:22;0.38;;;0.38;;
52574;SDS011;38468;48.114;-1.684;2022-10-20T06:28:24;0.17;;;0.17;;
52574;SDS011;38468;48.114;-1.684;2022-10-20T06:30:25;6.10;;;1.15;;
52574;SDS011;38468;48.114;-1.684;2022-10-20T06:32:26;5.68;;;2.92;;
52574;SDS011;38468;48.114;-1.684;2022-10-20T06:34:27;18.75;;;10.48;;
52574;SDS011;38468;48.114;-1.684;2022-10-20T06:36:27;2.92;;;2.15;;
52574;SDS011;38468;48.114;-1.684;2022-10-20T06:38:28;2.15;;;0.80;;
52574;SDS011;38468;48.114;-1.684;2022-10-20T06:40:28;0.35;;;0.35;;
52574;SDS011;38468;48.114;-1.684;2022-10-20T06:42:29;0.88;;;0.50;;
52574;SDS011;38468;48.114;-1.684;2022-10-20T06:44:30;5.75;;;0.55;;
52574;SDS011;38468;48.114;-1.684;2022-10-20T06:46:32;0.70;;;0.50;;
52574;SDS011;38468;48.114;-1.684;2022-10-20T06:48:35;4.03;;;0.28;;
52574;SDS011;38468;48.114;-1.684;2022-10-20T06:50:36;1.85;;;0.55;;
52574;SDS011;38468;48.114;-1.684;2022-10-20T06:52:36;1.10;;;0.88;;
52574;SDS011;38468;48.114;-1.684;2022-10-20T06:54:37;9.25;;;4.82;;
52574;SDS011;38468;48.114;-1.684;2022-10-20T06:56:38;8.82;;;5.30;;
52574;SDS011;38468;48.114;-1.684;2022-10-20T06:58:39;6.13;;;3.00;;
52574;SDS011;38468;48.114;-1.684;2022-10-20T07:02:41;2.72;;;1.38;;
52574;SDS011;38468;48.114;-1.684;2022-10-20T07:04:42;1.73;;;0.60;;
52574;SDS011;38468;48.114;-1.684;2022-10-20T07:06:43;0.85;;;0.43;;
52574;SDS011;38468;48.114;-1.684;2022-10-20T07:08:45;2.47;;;1.20;;
52574;SDS011;38468;48.114;-1.684;2022-10-20T07:10:46;1.17;;;0.68;;
52574;SDS011;38468;48.114;-1.684;2022-10-20T07:12:47;5.47;;;0.68;;
52574;SDS011;38468;48.114;-1.684;2022-10-20T07:14:48;5.85;;;1.35;;
52574;SDS011;38468;48.114;-1.684;2022-10-20T07:16:49;0.22;;;0.22;;
52574;SDS011;38468;48.114;-1.684;2022-10-20T07:18:49;2.90;;;1.05;;
52574;SDS011;38468;48.114;-1.684;2022-10-20T07:20:50;10.00;;;1.40;;
52574;SDS011;38468;48.114;-1.684;2022-10-20T07:22:54;1.40;;;0.90;;
52574;SDS011;38468;48.114;-1.684;2022-10-20T07:24:56;7.68;;;1.00;;
52574;SDS011;38468;48.114;-1.684;2022-10-20T07:26:58;1.60;;;0.80;;
52574;SDS011;38468;48.114;-1.684;2022-10-20T07:28:59;2.53;;;0.80;;
52574;SDS011;38468;48.114;-1.684;2022-10-20T07:31:01;3.15;;;0.90;;
52574;SDS011;38468;48.114;-1.684;2022-10-20T07:33:06;6.22;;;1.13;;
52574;SDS011;38468;48.114;-1.684;2022-10-20T07:35:08;3.90;;;0.82;;
52574;SDS011;38468;48.114;-1.684;2022-10-20T07:37:08;1.27;;;0.57;;
52574;SDS011;38468;48.114;-1.684;2022-10-20T07:39:09;0.50;;;0.50;;
52574;SDS011;38468;48.114;-1.684;2022-10-20T07:41:11;0.57;;;0.50;;
52574;SDS011;38468;48.114;-1.684;2022-10-20T07:43:12;1.35;;;0.63;;
52574;SDS011;38468;48.114;-1.684;2022-10-20T07:45:13;2.85;;;0.50;;
52574;SDS011;38468;48.114;-1.684;2022-10-20T07:47:14;9.63;;;0.98;;
52574;SDS011;38468;48.114;-1.684;2022-10-20T07:49:14;2.33;;;0.88;;
52574;SDS011;38468;48.114;-1.684;2022-10-20T07:51:16;4.70;;;0.95;;
52574;SDS011;38468;48.114;-1.684;2022-10-20T07:53:27;0.63;;;0.35;;
52574;SDS011;38468;48.114;-1.684;2022-10-20T07:55:27;1.15;;;0.60;;
52574;SDS011;38468;48.114;-1.684;2022-10-20T07:57:28;3.72;;;0.70;;
52574;SDS011;38468;48.114;-1.684;2022-10-20T07:59:29;1.35;;;0.50;;
52574;SDS011;38468;48.114;-1.684;2022-10-20T08:01:30;1.02;;;0.47;;
52574;SDS011;38468;48.114;-1.684;2022-10-20T08:03:31;2.60;;;0.60;;
52574;SDS011;38468;48.114;-1.684;2022-10-20T08:05:32;2.30;;;0.73;;
52574;SDS011;38468;48.114;-1.684;2022-10-20T08:07:33;2.97;;;0.55;;
52574;SDS011;38468;48.114;-1.684;2022-10-20T08:09:34;4.90;;;0.80;;
52574;SDS011;38468;48.114;-1.684;2022-10-20T08:11:35;5.45;;;0.50;;
52574;SDS011;38468;48.114;-1.684;2022-10-20T08:13:35;8.27;;;0.63;;
52574;SDS011;38468;48.114;-1.684;2022-10-20T08:15:38;1.55;;;0.57;;
52574;SDS011;38468;48.114;-1.684;2022-10-20T08:17:39;2.53;;;0.80;;
52574;SDS011;38468;48.114;-1.684;2022-10-20T08:19:39;2.78;;;0.43;;
52574;SDS011;38468;48.114;-1.684;2022-10-20T08:21:40;0.70;;;0.50;;
52574;SDS011;38468;48.114;-1.684;2022-10-20T08:23:41;6.15;;;2.35;;
52574;SDS011;38468;48.114;-1.684;2022-10-20T08:25:44;1.80;;;1.45;;
52574;SDS011;38468;48.114;-1.684;2022-10-20T08:27:45;7.82;;;3.95;;
52574;SDS011;38468;48.114;-1.684;2022-10-20T08:29:45;3.22;;;1.92;;
52574;SDS011;38468;48.114;-1.684;2022-10-20T08:31:47;5.18;;;1.52;;
52574;SDS011;38468;48.114;-1.684;2022-10-20T08:33:48;6.20;;;2.97;;
52574;SDS011;38468;48.114;-1.684;2022-10-20T08:35:48;2.58;;;2.03;;
52574;SDS011;38468;48.114;-1.684;2022-10-20T08:37:49;1.58;;;0.93;;
52574;SDS011;38468;48.114;-1.684;2022-10-20T08:39:50;3.83;;;1.00;;
52574;SDS011;38468;48.114;-1.684;2022-10-20T08:41:51;1.23;;;1.05;;
52574;SDS011;38468;48.114;-1.684;2022-10-20T08:43:54;1.90;;;0.95;;
52574;SDS011;38468;48.114;-1.684;2022-10-20T08:45:56;1.98;;;1.23;;
52574;SDS011;38468;48.114;-1.684;2022-10-20T08:47:57;2.03;;;0.75;;
52574;SDS011;38468;48.114;-1.684;2022-10-20T08:49:59;1.13;;;1.10;;
52574;SDS011;38468;48.114;-1.684;2022-10-20T08:52:01;2.42;;;0.77;;
52574;SDS011;38468;48.114;-1.684;2022-10-20T08:54:03;1.07;;;0.93;;
52574;SDS011;38468;48.114;-1.684;2022-10-20T08:56:11;2.08;;;0.98;;
52574;SDS011;38468;48.114;-1.684;2022-10-20T08:58:14;1.85;;;0.68;;
52574;SDS011;38468;48.114;-1.684;2022-10-20T09:00:21;4.97;;;1.73;;
52574;SDS011;38468;48.114;-1.684;2022-10-20T09:02:22;4.97;;;1.20;;
52574;SDS011;38468;48.114;-1.684;2022-10-20T09:04:28;1.73;;;0.85;;
52574;SDS011;38468;48.114;-1.684;2022-10-20T09:06:36;4.07;;;1.10;;
52574;SDS011;38468;48.114;-1.684;2022-10-20T09:08:43;6.68;;;1.35;;
52574;SDS011;38468;48.114;-1.684;2022-10-20T09:10:45;0.68;;;0.47;;
52574;SDS011;38468;48.114;-1.684;2022-10-20T09:12:48;3.25;;;1.05;;
52574;SDS011;38468;48.114;-1.684;2022-10-20T09:14:49;2.45;;;1.38;;
52574;SDS011;38468;48.114;-1.684;2022-10-20T09:16:50;2.23;;;1.57;;
52574;SDS011;38468;48.114;-1.684;2022-10-20T09:18:55;2.40;;;1.13;;
52574;SDS011;38468;48.114;-1.684;2022-10-20T09:23:02;0.98;;;0.65;;
52574;SDS011;38468;48.114;-1.684;2022-10-20T09:25:03;2.92;;;0.70;;
52574;SDS011;38468;48.114;-1.684;2022-10-20T09:29:44;1.02;;;0.60;;
52574;SDS011;38468;48.114;-1.684;2022-10-20T09:31:45;3.33;;;0.87;;
52574;SDS011;38468;48.114;-1.684;2022-10-20T09:33:47;2.20;;;0.50;;
52574;SDS011;38468;48.114;-1.684;2022-10-20T09:35:47;1.35;;;0.40;;
52574;SDS011;38468;48.114;-1.684;2022-10-20T09:37:57;2.95;;;0.60;;
52574;SDS011;38468;48.114;-1.684;2022-10-20T09:40:15;1.23;;;0.50;;
52574;SDS011;38468;48.114;-1.684;2022-10-20T09:42:19;3.00;;;0.98;;
52574;SDS011;38468;48.114;-1.684;2022-10-20T09:44:31;0.35;;;0.22;;
52574;SDS011;38468;48.114;-1.684;2022-10-20T09:46:46;2.92;;;0.85;;
52574;SDS011;38468;48.114;-1.684;2022-10-20T09:48:49;1.55;;;0.80;;
52574;SDS011;38468;48.114;-1.684;2022-10-20T09:50:51;3.83;;;0.80;;
52574;SDS011;38468;48.114;-1.684;2022-10-20T09:52:55;0.80;;;0.80;;
52574;SDS011;38468;48.114;-1.684;2022-10-20T09:57:18;0.93;;;0.77;;
52574;SDS011;38468;48.114;-1.684;2022-10-20T09:59:23;1.15;;;0.70;;
52574;SDS011;38468;48.114;-1.684;2022-10-20T10:01:27;2.38;;;0.47;;
52574;SDS011;38468;48.114;-1.684;2022-10-20T10:03:37;2.90;;;0.85;;
52574;SDS011;38468;48.114;-1.684;2022-10-20T10:05:39;3.60;;;0.88;;
52574;SDS011;38468;48.114;-1.684;2022-10-20T10:07:39;0.70;;;0.47;;
52574;SDS011;38468;48.114;-1.684;2022-10-20T10:09:40;2.13;;;0.50;;
52574;SDS011;38468;48.114;-1.684;2022-10-20T10:11:58;2.97;;;1.30;;
52574;SDS011;38468;48.114;-1.684;2022-10-20T10:16:01;1.15;;;0.80;;
52574;SDS011;38468;48.114;-1.684;2022-10-20T10:18:11;2.47;;;1.17;;
52574;SDS011;38468;48.114;-1.684;2022-10-20T10:22:15;2.65;;;0.95;;
52574;SDS011;38468;48.114;-1.684;2022-10-20T10:26:44;6.88;;;1.52;;
52574;SDS011;38468;48.114;-1.684;2022-10-20T10:28:56;11.27;;;1.90;;
52574;SDS011;38468;48.114;-1.684;2022-10-20T10:31:06;8.32;;;1.73;;
52574;SDS011;38468;48.114;-1.684;2022-10-20T10:33:24;3.70;;;1.75;;
52574;SDS011;38468;48.114;-1.684;2022-10-20T10:35:30;7.10;;;1.80;;
52574;SDS011;38468;48.114;-1.684;2022-10-20T10:37:37;4.53;;;1.40;;
52574;SDS011;38468;48.114;-1.684;2022-10-20T10:39:40;7.18;;;1.55;;
52574;SDS011;38468;48.114;-1.684;2022-10-20T11:01:18;6.03;;;2.47;;
52574;SDS011;38468;48.114;-1.684;2022-10-20T11:17:06;5.15;;;1.45;;
52574;SDS011;38468;48.114;-1.684;2022-10-20T11:26:35;5.60;;;1.67;;
52574;SDS011;38468;48.114;-1.684;2022-10-20T11:28:41;6.28;;;1.95;;
52574;SDS011;38468;48.114;-1.684;2022-10-20T11:30:45;7.25;;;2.40;;
52574;SDS011;38468;48.114;-1.684;2022-10-20T11:37:47;5.47;;;1.42;;
52574;SDS011;38468;48.114;-1.684;2022-10-20T11:39:59;3.08;;;1.15;;
52574;SDS011;38468;48.114;-1.684;2022-10-20T11:42:15;3.47;;;1.77;;
52574;SDS011;38468;48.114;-1.684;2022-10-20T11:44:26;11.10;;;2.97;;
52574;SDS011;38468;48.114;-1.684;2022-10-20T11:46:50;7.55;;;2.65;;
52574;SDS011;38468;48.114;-1.684;2022-10-20T11:48:56;13.15;;;1.92;;
52574;SDS011;38468;48.114;-1.684;2022-10-20T11:51:24;5.75;;;1.77;;
52574;SDS011;38468;48.114;-1.684;2022-10-20T11:59:10;6.43;;;1.52;;
52574;SDS011;38468;48.114;-1.684;2022-10-20T12:15:21;6.15;;;1.30;;
52574;SDS011;38468;48.114;-1.684;2022-10-20T12:17:28;5.57;;;1.45;;
52574;SDS011;38468;48.114;-1.684;2022-10-20T12:19:33;11.73;;;2.03;;
52574;SDS011;38468;48.114;-1.684;2022-10-20T12:23:56;4.93;;;2.65;;
52574;SDS011;38468;48.114;-1.684;2022-10-20T12:26:02;7.47;;;2.10;;
52574;SDS011;38468;48.114;-1.684;2022-10-20T12:32:50;7.07;;;2.03;;
52574;SDS011;38468;48.114;-1.684;2022-10-20T12:39:27;6.57;;;2.17;;
52574;SDS011;38468;48.114;-1.684;2022-10-20T12:41:29;6.15;;;1.83;;
52574;SDS011;38468;48.114;-1.684;2022-10-20T12:45:38;4.90;;;1.95;;
52574;SDS011;38468;48.114;-1.684;2022-10-20T12:47:40;6.18;;;2.10;;
52574;SDS011;38468;48.114;-1.684;2022-10-20T12:49:54;3.75;;;1.20;;
52574;SDS011;38468;48.114;-1.684;2022-10-20T12:51:57;10.30;;;2.60;;
52574;SDS011;38468;48.114;-1.684;2022-10-20T12:54:00;8.43;;;2.58;;
52574;SDS011;38468;48.114;-1.684;2022-10-20T12:56:08;5.55;;;2.13;;
52574;SDS011;38468;48.114;-1.684;2022-10-20T13:02:27;4.70;;;1.38;;
52574;SDS011;38468;48.114;-1.684;2022-10-20T13:07:00;3.72;;;1.92;;
52574;SDS011;38468;48.114;-1.684;2022-10-20T13:13:50;8.23;;;1.70;;
52574;SDS011;38468;48.114;-1.684;2022-10-20T13:15:56;9.85;;;1.73;;
52574;SDS011;38468;48.114;-1.684;2022-10-20T13:20:17;6.88;;;1.27;;
52574;SDS011;38468;48.114;-1.684;2022-10-20T13:24:37;3.33;;;1.33;;
52574;SDS011;38468;48.114;-1.684;2022-10-20T13:26:44;4.10;;;1.35;;
52574;SDS011;38468;48.114;-1.684;2022-10-20T13:28:49;8.52;;;1.92;;
52574;SDS011;38468;48.114;-1.684;2022-10-20T13:32:58;8.15;;;4.80;;
52574;SDS011;38468;48.114;-1.684;2022-10-20T13:35:46;6.93;;;2.80;;
52574;SDS011;38468;48.114;-1.684;2022-10-20T13:47:06;3.40;;;1.63;;
52574;SDS011;38468;48.114;-1.684;2022-10-20T13:49:41;6.38;;;1.33;;
52574;SDS011;38468;48.114;-1.684;2022-10-20T13:51:50;3.83;;;1.52;;
52574;SDS011;38468;48.114;-1.684;2022-10-20T13:53:58;4.55;;;1.83;;
52574;SDS011;38468;48.114;-1.684;2022-10-20T13:56:01;8.73;;;2.03;;
52574;SDS011;38468;48.114;-1.684;2022-10-20T13:58:13;6.22;;;2.50;;
52574;SDS011;38468;48.114;-1.684;2022-10-20T14:00:29;8.63;;;3.15;;
52574;SDS011;38468;48.114;-1.684;2022-10-20T14:02:33;4.82;;;3.00;;
52574;SDS011;38468;48.114;-1.684;2022-10-20T14:04:35;4.32;;;3.15;;
52574;SDS011;38468;48.114;-1.684;2022-10-20T14:06:36;15.18;;;3.28;;
52574;SDS011;38468;48.114;-1.684;2022-10-20T14:08:43;8.18;;;2.67;;
52574;SDS011;38468;48.114;-1.684;2022-10-20T14:11:02;8.52;;;1.90;;
52574;SDS011;38468;48.114;-1.684;2022-10-20T14:13:09;3.08;;;1.60;;
52574;SDS011;38468;48.114;-1.684;2022-10-20T14:15:20;6.45;;;1.50;;
52574;SDS011;38468;48.114;-1.684;2022-10-20T14:17:25;8.45;;;2.88;;
52574;SDS011;38468;48.114;-1.684;2022-10-20T14:19:27;3.70;;;1.73;;
52574;SDS011;38468;48.114;-1.684;2022-10-20T14:21:38;3.58;;;1.80;;
52574;SDS011;38468;48.114;-1.684;2022-10-20T14:23:43;5.75;;;2.20;;
52574;SDS011;38468;48.114;-1.684;2022-10-20T14:25:45;5.88;;;4.22;;
52574;SDS011;38468;48.114;-1.684;2022-10-20T14:27:48;9.38;;;4.07;;
52574;SDS011;38468;48.114;-1.684;2022-10-20T14:29:53;8.38;;;2.17;;
52574;SDS011;38468;48.114;-1.684;2022-10-20T14:31:55;4.60;;;2.20;;
52574;SDS011;38468;48.114;-1.684;2022-10-20T14:33:56;11.55;;;5.22;;
52574;SDS011;38468;48.114;-1.684;2022-10-20T14:35:57;5.50;;;3.23;;
52574;SDS011;38468;48.114;-1.684;2022-10-20T14:38:05;7.32;;;2.10;;